createdAt,value
2023-01-25T00:02:05.443Z,1030
2023-01-25T00:07:56.069Z,1029
2023-01-25T00:14:00.575Z,1029
2023-01-25T00:19:56.829Z,1029
2023-01-25T00:25:57.899Z,1029
2023-01-25T00:31:55.869Z,1029
2023-01-25T00:37:55.071Z,1029
2023-01-25T00:43:55.372Z,1029
2023-01-25T00:49:55.683Z,1029
2023-01-25T00:55:56.664Z,1029
2023-01-25T01:02:00.238Z,1029
2023-01-25T01:07:57.032Z,1029
2023-01-25T01:13:56.069Z,1029
2023-01-25T01:19:57.182Z,1029
2023-01-25T01:25:58.627Z,1029
2023-01-25T01:31:56.098Z,1029
2023-01-25T01:37:57.574Z,1029
2023-01-25T01:44:05.790Z,1029
2023-01-25T01:49:55.240Z,1029
2023-01-25T01:55:56.745Z,1029
2023-01-25T02:02:00.594Z,1029
2023-01-25T02:08:07.053Z,1029
2023-01-25T02:13:58.533Z,1029
2023-01-25T02:20:15.552Z,1029
2023-01-25T02:25:56.521Z,1029
2023-01-25T02:32:11.096Z,1029
2023-01-25T02:38:06.976Z,1029
2023-01-25T02:44:09.881Z,1029
2023-01-25T02:49:55.400Z,1029
2023-01-25T02:55:57.802Z,1029
2023-01-25T03:02:10.700Z,1029
2023-01-25T03:08:11.860Z,1029
2023-01-25T03:13:57.195Z,1029
2023-01-25T03:20:05.709Z,1029
2023-01-25T03:25:59.881Z,1029
2023-01-25T03:31:58.773Z,1029
2023-01-25T03:37:56.205Z,1029
2023-01-25T03:43:57.191Z,1029
2023-01-25T03:49:57.714Z,1029
2023-01-25T03:55:57.434Z,1029
2023-01-25T04:01:56.904Z,1029
2023-01-25T04:07:56.171Z,1029
2023-01-25T04:13:56.349Z,1029
2023-01-25T04:19:59.590Z,1029
2023-01-25T04:25:56.173Z,1029
2023-01-25T04:32:03.315Z,1029
2023-01-25T04:37:55.815Z,1028
2023-01-25T04:43:55.984Z,1028
2023-01-25T04:50:09.913Z,1028
2023-01-25T04:55:57.326Z,1028
2023-01-25T05:01:56.401Z,1028
2023-01-25T05:07:56.791Z,1028
2023-01-25T05:13:55.360Z,1028
2023-01-25T05:19:57.015Z,1028
2023-01-25T05:25:56.302Z,1028
2023-01-25T05:31:57.818Z,1028
2023-01-25T05:38:02.684Z,1028
2023-01-25T05:43:58.272Z,1028
2023-01-25T05:49:57.490Z,1028
2023-01-25T05:55:59.745Z,1028
2023-01-25T06:01:59.599Z,1028
2023-01-25T06:07:55.679Z,1028
2023-01-25T06:13:55.871Z,1028
2023-01-25T06:19:56.490Z,1028
2023-01-25T06:25:57.326Z,1028
2023-01-25T06:31:56.357Z,1028
2023-01-25T06:37:57.639Z,1028
2023-01-25T06:43:57.291Z,1028
2023-01-25T06:49:56.636Z,1028
2023-01-25T06:55:56.119Z,1028
2023-01-25T07:01:55.980Z,1027
2023-01-25T07:07:55.558Z,1027
2023-01-25T07:13:56.161Z,1027
2023-01-25T07:19:57.172Z,1027
2023-01-25T07:25:56.148Z,1027
2023-01-25T07:31:57.834Z,1027
2023-01-25T07:37:55.415Z,1027
2023-01-25T07:44:04.466Z,1027
2023-01-25T07:49:55.889Z,1027
2023-01-25T08:04:56.439Z,1027
2023-01-25T08:13:56.240Z,1027
2023-01-25T08:19:55.502Z,1028
2023-01-25T08:25:57.315Z,1028
2023-01-25T08:31:56.218Z,1028
2023-01-25T08:37:56.970Z,1028
2023-01-25T08:43:56.182Z,1028
2023-01-25T08:49:55.798Z,1028
2023-01-25T08:55:56.899Z,1028
2023-01-25T09:01:58.009Z,1028
2023-01-25T09:07:56.944Z,1028
2023-01-25T09:13:56.393Z,1028
2023-01-25T09:19:56.349Z,1028
2023-01-25T09:25:58.239Z,1028
2023-01-25T09:31:57.750Z,1028
2023-01-25T09:37:56.834Z,1028
2023-01-25T09:43:56.807Z,1028
2023-01-25T09:49:55.242Z,1028
2023-01-25T09:55:55.348Z,1028
2023-01-25T10:01:55.775Z,1028
2023-01-25T10:07:55.332Z,1028
2023-01-25T10:13:55.295Z,1028
2023-01-25T10:19:55.356Z,1028
2023-01-25T10:25:55.225Z,1028
2023-01-25T10:31:55.255Z,1028
2023-01-25T10:37:57.067Z,1028
2023-01-25T10:43:57.033Z,1028
2023-01-25T10:49:57.223Z,1028
2023-01-25T10:55:55.638Z,1028
2023-01-25T11:01:56.628Z,1028
2023-01-25T11:07:55.463Z,1028
2023-01-25T11:13:55.591Z,1028
2023-01-25T11:19:55.859Z,1028
2023-01-25T11:25:56.912Z,1028
2023-01-25T11:31:55.645Z,1026
2023-01-25T11:37:55.488Z,1026
2023-01-25T11:43:55.321Z,1026
2023-01-25T11:49:55.131Z,1026
2023-01-25T11:55:55.213Z,1026
2023-01-25T12:04:55.127Z,1026
2023-01-25T12:10:55.276Z,1026
2023-01-25T12:16:55.173Z,1026
2023-01-25T12:22:55.127Z,1026
2023-01-25T12:28:55.260Z,1026
2023-01-25T12:34:55.377Z,1026
2023-01-25T12:40:55.315Z,1026
2023-01-25T12:46:55.810Z,1026
2023-01-25T12:52:55.507Z,1026
2023-01-25T12:58:56.138Z,1026
2023-01-25T13:04:55.217Z,1026
2023-01-25T13:10:55.253Z,1026
2023-01-25T13:17:09.362Z,1026
2023-01-25T13:22:55.414Z,1026
2023-01-25T13:28:55.313Z,1026
2023-01-25T13:34:55.283Z,1026
2023-01-25T13:40:55.472Z,1026
2023-01-25T13:46:57.509Z,1026
2023-01-25T13:52:55.912Z,1026
2023-01-25T13:58:56.186Z,1026
2023-01-25T14:04:56.037Z,1026
2023-01-25T14:10:56.712Z,1026
2023-01-25T14:16:55.482Z,1026
2023-01-25T14:22:56.245Z,1026
2023-01-25T14:29:01.425Z,1026
2023-01-25T14:34:55.675Z,1026
2023-01-25T14:40:55.496Z,1026
2023-01-25T14:46:56.253Z,1026
2023-01-25T14:52:56.406Z,1026
2023-01-25T14:59:00.272Z,1023
2023-01-25T15:05:04.885Z,1023
2023-01-25T15:11:00.902Z,1023
2023-01-25T15:16:57.746Z,1023
2023-01-25T15:22:55.792Z,1023
2023-01-25T15:28:56.872Z,1023
2023-01-25T15:34:55.957Z,1022
2023-01-25T15:40:55.965Z,1022
2023-01-25T15:46:55.959Z,1022
2023-01-25T15:52:56.493Z,1022
2023-01-25T15:58:56.424Z,1022
2023-01-25T16:04:55.612Z,1022
2023-01-25T16:10:55.324Z,1022
2023-01-25T16:16:56.358Z,1022
2023-01-25T16:22:55.811Z,1022
2023-01-25T16:28:55.626Z,1022
2023-01-25T16:34:55.896Z,1022
2023-01-25T16:40:55.906Z,1022
2023-01-25T16:46:57.426Z,1022
2023-01-25T16:52:57.044Z,1022
2023-01-25T16:58:56.354Z,1022
2023-01-25T17:04:56.197Z,1022
2023-01-25T17:10:56.371Z,1022
2023-01-25T17:16:56.286Z,1022
2023-01-25T17:22:55.745Z,1022
2023-01-25T17:28:56.620Z,1022
2023-01-25T17:34:56.288Z,1022
2023-01-25T17:40:56.236Z,1022
2023-01-25T17:46:56.206Z,1022
2023-01-25T17:52:56.034Z,1021
2023-01-25T17:58:56.313Z,1021
2023-01-25T18:04:56.096Z,1021
2023-01-25T18:10:56.168Z,1021
2023-01-25T18:16:56.431Z,1021
2023-01-25T18:22:55.536Z,1021
2023-01-25T18:28:56.735Z,1021
2023-01-25T18:34:55.802Z,1021
2023-01-25T18:40:56.100Z,1021
2023-01-25T18:46:57.277Z,1021
2023-01-25T18:52:55.767Z,1021
2023-01-25T18:58:55.684Z,1021
2023-01-25T19:04:55.836Z,1021
2023-01-25T19:10:56.424Z,1021
2023-01-25T19:16:57.482Z,1021
2023-01-25T19:22:55.678Z,1021
2023-01-25T19:28:55.743Z,1021
2023-01-25T19:34:55.620Z,1021
2023-01-25T19:40:56.099Z,1021
2023-01-25T19:46:56.360Z,1020
2023-01-25T19:52:55.597Z,1020
2023-01-25T19:58:56.208Z,1020
2023-01-25T20:04:56.682Z,1020
2023-01-25T20:10:56.525Z,1020
2023-01-25T20:16:56.202Z,1020
2023-01-25T20:22:56.454Z,1020
2023-01-25T20:28:55.970Z,1020
2023-01-25T20:34:56.764Z,1020
2023-01-25T20:40:55.927Z,1020
2023-01-25T20:46:56.560Z,1020
2023-01-25T20:52:56.302Z,1020
2023-01-25T20:58:56.057Z,1020
2023-01-25T21:04:57.099Z,1019
2023-01-25T21:10:55.949Z,1020
2023-01-25T21:16:55.732Z,1020
2023-01-25T21:22:56.401Z,1019
2023-01-25T21:28:55.730Z,1019
2023-01-25T21:34:56.588Z,1019
2023-01-25T21:40:56.076Z,1019
2023-01-25T21:47:27.466Z,1019
2023-01-25T21:52:56.380Z,1019
2023-01-25T21:58:55.999Z,1019
2023-01-25T22:04:55.884Z,1019
2023-01-25T22:10:56.169Z,1019
2023-01-25T22:16:56.617Z,1019
2023-01-25T22:22:56.176Z,1019
2023-01-25T22:28:55.741Z,1019
2023-01-25T22:34:56.781Z,1019
2023-01-25T22:40:56.558Z,1019
2023-01-25T22:46:56.073Z,1019
2023-01-25T22:52:55.762Z,1019
2023-01-25T22:58:55.583Z,1019
2023-01-25T23:04:55.646Z,1019
2023-01-25T23:10:57.016Z,1019
2023-01-25T23:16:55.737Z,1019
2023-01-25T23:22:55.720Z,1019
2023-01-25T23:28:55.639Z,1019
2023-01-25T23:34:56.417Z,1019
2023-01-25T23:40:55.840Z,1019
2023-01-25T23:46:55.891Z,1019
2023-01-25T23:52:56.138Z,1019
2023-01-25T23:58:56.553Z,1018
